Terminal Aerodrome Forecast
Issued by NWS Green Bay, WI

Home | Current Version | Previous Version | Text Only | Print | Product List | Glossary Off
Versions: 1 2 3 4 5 6 7 8 9 10 11 12 13 14 15 16 17 18 19 20 21 22 23 24 25 26 27 28 29 30 31 32 33 34 35 36 37 38 39 40

000
FTUS43 KGRB 051700
TAFGRB
TAF
KGRB 051724Z 0518/0618 26008G13KT P6SM SKC
     FM060000 22005KT P6SM SCT250
     FM060800 21009G15KT P6SM BKN150
     FM061300 22012G22KT P6SM SCT035 BKN080
     FM061600 23014G24KT P6SM -SN BKN025=

USA.gov is the U.S. government's official web portal to all federal, state and local government web resources and services.